Terminal Aerodrome Forecast
Issued by NWS

Home | Current Version | Previous Version | Text Only | Print | Product List | Glossary On
Versions: 1 2 3 4 5 6 7 8 9 10 11 12 13 14 15 16 17 18 19 20 21 22 23 24 25 26 27 28 29 30 31 32 33 34 35 36 37 38 39 40 41 42 43
000
FTUS43 KMKX 071242 AAA
TAFUES
TAF AMD
KUES 071242Z 0713/0812 02009G14KT 6SM FU SCT009 BKN013 OVC025
      TEMPO 0713/0714 2SM -DZ FU BKN009 OVC015
     FM071600 02009KT 6SM FU SCT040
     FM071700 02009KT P6SM SCT040
     FM072300 04008KT P6SM FEW250
     FM080300 04004KT P6SM FEW250=

USA.gov is the U.S. government's official web portal to all federal, state and local government web resources and services.